createdAt,value
2023-04-28T00:00:04.905Z,5.53
2023-04-28T00:02:31.630Z,10.13
2023-04-28T00:04:58.458Z,3.75
2023-04-28T00:07:25.364Z,5.35
2023-04-28T00:09:51.945Z,4.38
2023-04-28T00:12:18.555Z,6.03
2023-04-28T00:14:45.460Z,4.53
2023-04-28T00:17:12.049Z,5.10
2023-04-28T00:19:38.854Z,5.55
2023-04-28T00:22:06.403Z,4.85
2023-04-28T00:24:33.903Z,6.10
2023-04-28T00:27:01.477Z,3.83
2023-04-28T00:29:29.047Z,4.20
2023-04-28T00:31:56.095Z,6.23
2023-04-28T00:34:22.688Z,6.00
2023-04-28T00:36:49.281Z,6.93
2023-04-28T00:39:16.811Z,6.05
2023-04-28T00:41:43.410Z,4.00
2023-04-28T00:44:10.022Z,5.93
2023-04-28T00:46:36.625Z,4.18
2023-04-28T00:49:04.542Z,4.68
2023-04-28T00:51:33.819Z,5.93
2023-04-28T00:54:00.813Z,5.20
2023-04-28T00:56:31.038Z,5.35
2023-04-28T00:58:58.316Z,7.85
2023-04-28T01:01:25.311Z,6.03
2023-04-28T01:03:52.225Z,4.55
2023-04-28T01:06:20.459Z,6.50
2023-04-28T01:08:49.120Z,5.70
2023-04-28T01:11:15.772Z,5.35
2023-04-28T01:13:42.385Z,3.40
2023-04-28T01:16:09.090Z,4.13
2023-04-28T01:18:35.986Z,3.90
2023-04-28T01:21:04.356Z,4.75
2023-04-28T01:23:31.172Z,6.00
2023-04-28T01:25:58.444Z,5.25
2023-04-28T01:28:25.038Z,5.68
2023-04-28T01:30:51.630Z,5.55
2023-04-28T01:33:18.208Z,8.20
2023-04-28T01:35:44.808Z,3.67
2023-04-28T01:38:11.568Z,5.85
2023-04-28T01:40:38.169Z,7.07
2023-04-28T01:43:04.763Z,5.50
2023-04-28T01:45:31.413Z,4.65
2023-04-28T01:47:58.054Z,6.32
2023-04-28T01:50:24.697Z,8.43
2023-04-28T01:52:51.343Z,6.93
2023-04-28T01:55:17.929Z,5.32
2023-04-28T01:57:44.550Z,6.75
2023-04-28T02:00:11.524Z,5.57
2023-04-28T02:02:38.194Z,6.60
2023-04-28T02:05:05.108Z,5.13
2023-04-28T02:07:31.770Z,6.40
2023-04-28T02:09:58.348Z,5.57
2023-04-28T02:12:25.095Z,6.68
2023-04-28T02:14:51.680Z,6.70
2023-04-28T02:17:18.258Z,6.95
2023-04-28T02:19:44.842Z,5.57
2023-04-28T02:22:11.407Z,7.40
2023-04-28T02:24:38.706Z,5.80
2023-04-28T02:27:05.776Z,5.53
2023-04-28T02:29:32.500Z,6.75
2023-04-28T02:31:59.174Z,5.47
2023-04-28T02:34:26.024Z,5.38
2023-04-28T02:36:52.615Z,5.43
2023-04-28T02:39:21.368Z,6.07
2023-04-28T02:41:48.040Z,5.75
2023-04-28T02:44:14.855Z,5.03
2023-04-28T02:46:41.841Z,5.25
2023-04-28T02:49:08.543Z,6.88
2023-04-28T02:51:35.153Z,6.82
2023-04-28T02:54:01.726Z,6.25
2023-04-28T02:56:29.938Z,6.15
2023-04-28T02:58:56.862Z,6.20
2023-04-28T03:01:23.840Z,7.55
2023-04-28T03:03:50.951Z,7.35
2023-04-28T03:06:17.698Z,8.80
2023-04-28T03:08:44.285Z,5.30
2023-04-28T03:11:11.475Z,5.95
2023-04-28T03:13:38.075Z,5.88
2023-04-28T03:16:05.320Z,5.53
2023-04-28T03:18:32.020Z,7.53
2023-04-28T03:20:58.689Z,6.32
2023-04-28T03:23:25.275Z,6.60
2023-04-28T03:25:51.874Z,6.57
2023-04-28T03:28:18.492Z,7.82
2023-04-28T05:56:32.240Z,10.45
2023-04-28T05:58:59.321Z,12.65
2023-04-28T06:01:26.287Z,10.75
2023-04-28T06:03:54.052Z,11.15
2023-04-28T06:06:21.877Z,9.85
2023-04-28T06:08:48.573Z,8.45
2023-04-28T06:11:15.160Z,11.77
2023-04-28T06:13:41.767Z,8.50
2023-04-28T06:16:08.393Z,11.68
2023-04-28T06:18:35.537Z,10.60
2023-04-28T06:21:02.195Z,10.60
2023-04-28T06:23:28.746Z,10.23
2023-04-28T06:25:55.452Z,10.30
2023-04-28T06:28:22.085Z,11.40
2023-04-28T06:30:48.692Z,11.10
2023-04-28T06:33:15.241Z,9.07
2023-04-28T06:35:41.838Z,11.02
2023-04-28T06:38:08.506Z,9.52
2023-04-28T06:40:35.063Z,9.55
2023-04-28T06:43:01.851Z,9.07
2023-04-28T06:45:28.628Z,8.52
2023-04-28T06:47:56.116Z,11.90
2023-04-28T06:50:24.518Z,11.17
2023-04-28T06:52:51.123Z,11.25
2023-04-28T06:55:18.201Z,10.48
2023-04-28T06:57:45.031Z,8.50
2023-04-28T07:00:12.829Z,10.70
2023-04-28T07:02:40.004Z,8.38
2023-04-28T07:05:07.178Z,8.38
2023-04-28T07:07:33.917Z,10.45
2023-04-28T07:10:01.196Z,10.20
2023-04-28T07:12:27.779Z,10.20
2023-04-28T07:14:55.910Z,9.95
2023-04-28T07:17:22.600Z,8.55
2023-04-28T07:19:50.959Z,9.82
2023-04-28T07:24:44.725Z,10.38
2023-04-28T07:27:11.363Z,7.32
2023-04-28T07:29:38.297Z,8.57
2023-04-28T07:32:06.853Z,10.68
2023-04-28T07:34:35.858Z,10.82
2023-04-28T07:37:03.558Z,10.13
2023-04-28T07:39:32.157Z,12.85
2023-04-28T07:41:59.126Z,9.15
2023-04-28T07:44:25.844Z,11.77
2023-04-28T07:46:53.366Z,11.05
2023-04-28T07:49:19.957Z,9.75
2023-04-28T07:51:47.245Z,9.77
2023-04-28T07:54:15.636Z,9.68
2023-04-28T07:59:08.784Z,8.10
2023-04-28T08:01:35.475Z,11.30
2023-04-28T08:04:02.156Z,9.15
2023-04-28T08:06:29.248Z,9.73
2023-04-28T08:08:56.045Z,10.80
2023-04-28T08:11:22.762Z,9.38
2023-04-28T08:13:49.569Z,9.43
2023-04-28T08:16:16.714Z,9.55
2023-04-28T08:18:43.479Z,9.63
2023-04-28T08:21:10.118Z,10.10
2023-04-28T08:23:36.765Z,10.05
2023-04-28T08:26:03.382Z,11.82
2023-04-28T08:28:30.003Z,8.30
2023-04-28T08:30:56.655Z,10.43
2023-04-28T08:33:24.119Z,8.15
2023-04-28T08:35:51.156Z,10.38
2023-04-28T08:38:18.352Z,10.60
2023-04-28T08:40:45.027Z,12.52
2023-04-28T08:43:11.710Z,9.55
2023-04-28T08:45:43.089Z,11.13
2023-04-28T08:48:22.331Z,13.40
2023-04-28T08:50:53.454Z,10.05
2023-04-28T08:53:26.917Z,12.55
2023-04-28T08:55:58.115Z,11.77
2023-04-28T08:58:25.812Z,13.98
2023-04-28T09:00:54.518Z,12.32
2023-04-28T09:03:21.587Z,9.90
2023-04-28T09:05:49.143Z,11.13
2023-04-28T09:08:15.850Z,9.52
2023-04-28T09:10:42.555Z,11.30
2023-04-28T09:13:09.180Z,9.65
2023-04-28T09:15:38.393Z,10.15
2023-04-28T09:18:06.981Z,12.57
2023-04-28T09:20:35.152Z,8.90
2023-04-28T09:23:15.020Z,10.88
2023-04-28T09:25:41.652Z,10.52
2023-04-28T09:28:24.345Z,10.55
2023-04-28T09:30:50.994Z,13.10
2023-04-28T09:33:17.616Z,9.60
2023-04-28T09:35:47.795Z,10.13
2023-04-28T09:38:15.549Z,10.82
2023-04-28T09:40:57.556Z,10.15
2023-04-28T09:43:42.153Z,12.88
2023-04-28T09:46:08.743Z,11.32
2023-04-28T09:48:38.028Z,11.85
2023-04-28T09:51:06.159Z,12.60
2023-04-28T09:53:33.295Z,11.77
2023-04-28T09:56:03.599Z,13.88
2023-04-28T09:58:32.288Z,12.45
2023-04-28T10:03:29.858Z,10.13
2023-04-28T10:05:58.445Z,13.25
2023-04-28T10:08:27.283Z,10.93
2023-04-28T10:10:54.864Z,10.20
2023-04-28T10:13:22.125Z,12.63
2023-04-28T10:15:50.891Z,10.15
2023-04-28T10:18:18.463Z,12.52
2023-04-28T10:20:58.159Z,10.07
2023-04-28T10:23:43.723Z,9.82
2023-04-28T10:26:12.637Z,12.45
2023-04-28T10:28:46.310Z,13.15
2023-04-28T10:31:13.857Z,10.15
2023-04-28T10:33:41.464Z,8.63
2023-04-28T10:36:08.323Z,11.23
2023-04-28T10:38:35.830Z,15.88
2023-04-28T10:41:03.185Z,10.82
2023-04-28T10:43:30.992Z,10.60
2023-04-28T10:46:00.820Z,9.68
2023-04-28T10:48:33.350Z,11.15
2023-04-28T10:51:13.279Z,11.75
2023-04-28T10:53:46.176Z,11.45
2023-04-28T10:56:26.996Z,8.18
2023-04-28T10:58:57.684Z,9.93
2023-04-28T11:01:25.267Z,9.57
2023-04-28T11:04:13.280Z,9.20
2023-04-28T11:06:42.067Z,11.63
2023-04-28T11:09:14.929Z,13.02
2023-04-28T11:11:59.975Z,9.50
2023-04-28T11:14:26.522Z,12.55
2023-04-28T11:17:01.285Z,9.10
2023-04-28T11:19:36.773Z,9.52
2023-04-28T11:22:17.920Z,7.38
2023-04-28T11:25:01.949Z,9.55
2023-04-28T11:27:35.079Z,10.90
2023-04-28T11:30:02.333Z,8.73
2023-04-28T11:32:32.989Z,7.82
2023-04-28T11:35:00.290Z,10.25
2023-04-28T11:37:27.442Z,9.80
2023-04-28T11:39:54.768Z,9.88
2023-04-28T11:42:21.873Z,13.93
2023-04-28T11:44:53.344Z,10.95
2023-04-28T11:47:33.800Z,12.73
2023-04-28T11:50:01.558Z,10.63
2023-04-28T11:52:28.218Z,10.35
2023-04-28T11:54:56.564Z,11.18
2023-04-28T11:57:23.557Z,9.55
2023-04-28T11:59:50.910Z,11.43
2023-04-28T12:02:26.553Z,10.23
2023-04-28T12:04:53.407Z,9.80
2023-04-28T12:07:20.240Z,11.25
2023-04-28T12:10:06.617Z,9.18
2023-04-28T12:15:05.365Z,10.48
2023-04-28T12:20:02.035Z,10.05
2023-04-28T12:22:28.914Z,10.25
2023-04-28T12:25:08.633Z,10.20
2023-04-28T12:27:39.261Z,9.82
2023-04-28T12:30:21.743Z,8.18
2023-04-28T12:32:48.563Z,8.65
2023-04-28T12:35:16.131Z,8.00
2023-04-28T12:37:43.279Z,10.15
2023-04-28T12:40:10.768Z,9.18
2023-04-28T12:42:37.442Z,12.45
2023-04-28T12:45:04.389Z,9.73
2023-04-28T12:47:31.585Z,7.90
2023-04-28T12:49:58.219Z,9.48
2023-04-28T12:52:24.816Z,13.13
2023-04-28T12:54:51.495Z,13.65
2023-04-28T12:57:19.641Z,9.43
2023-04-28T12:59:52.227Z,11.82
2023-04-28T13:02:19.344Z,9.30
2023-04-28T13:04:46.339Z,13.85
2023-04-28T13:07:13.888Z,9.20
2023-04-28T13:09:42.772Z,9.10
2023-04-28T13:12:11.646Z,11.98
2023-04-28T13:14:38.244Z,11.10
2023-04-28T13:17:05.018Z,15.15
2023-04-28T13:19:32.724Z,10.95
2023-04-28T13:21:59.343Z,14.07
2023-04-28T13:24:26.421Z,10.32
2023-04-28T13:26:53.134Z,10.05
2023-04-28T13:29:19.806Z,10.95
2023-04-28T13:31:46.547Z,8.40
2023-04-28T13:34:17.538Z,12.05
2023-04-28T13:36:44.916Z,17.17
2023-04-28T13:39:11.691Z,11.02
2023-04-28T13:41:38.338Z,13.07
2023-04-28T13:44:04.917Z,11.95
2023-04-28T13:46:31.602Z,10.02
2023-04-28T13:48:58.629Z,18.08
2023-04-28T13:51:25.297Z,9.90
2023-04-28T13:53:52.187Z,10.27
2023-04-28T13:56:18.802Z,12.80
2023-04-28T13:58:45.609Z,12.27
2023-04-28T14:01:12.328Z,10.00
2023-04-28T14:03:40.224Z,10.40
2023-04-28T14:06:07.341Z,9.65
2023-04-28T14:08:34.029Z,8.65
2023-04-28T14:11:01.328Z,10.40
2023-04-28T14:13:28.052Z,10.27
2023-04-28T14:15:59.006Z,9.73
2023-04-28T14:18:27.305Z,8.30
2023-04-28T14:20:54.567Z,13.07
2023-04-28T14:23:22.683Z,9.80
2023-04-28T14:25:50.247Z,9.32
2023-04-28T14:28:17.228Z,12.63
2023-04-28T14:30:44.181Z,13.20
2023-04-28T14:33:10.889Z,11.23
2023-04-28T14:35:37.570Z,11.02
2023-04-28T14:38:04.378Z,13.98
2023-04-28T14:40:31.390Z,9.43
2023-04-28T14:42:58.177Z,10.82
2023-04-28T14:45:25.045Z,9.88
2023-04-28T14:47:51.657Z,9.23
2023-04-28T14:50:18.774Z,11.25
2023-04-28T14:52:45.608Z,10.50
2023-04-28T14:55:12.224Z,15.48
2023-04-28T14:57:38.884Z,10.65
2023-04-28T15:00:08.019Z,10.75
2023-04-28T15:02:36.216Z,14.00
2023-04-28T15:05:03.355Z,11.18
2023-04-28T15:07:31.918Z,12.65
2023-04-28T15:10:01.888Z,9.10
2023-04-28T15:12:32.061Z,15.35
2023-04-28T15:14:58.673Z,13.88
2023-04-28T15:17:25.458Z,13.85
2023-04-28T15:19:52.375Z,12.15
2023-04-28T15:22:18.994Z,11.18
2023-04-28T15:24:45.668Z,10.13
2023-04-28T15:27:12.303Z,10.52
2023-04-28T15:29:39.202Z,9.98
2023-04-28T15:32:06.838Z,10.20
2023-04-28T15:34:33.851Z,13.43
2023-04-28T15:37:00.999Z,11.60
2023-04-28T15:39:28.483Z,11.30
2023-04-28T15:41:56.145Z,9.65
2023-04-28T15:44:23.196Z,11.07
2023-04-28T15:46:51.823Z,12.23
2023-04-28T15:49:18.537Z,16.25
2023-04-28T15:51:45.661Z,11.05
2023-04-28T15:54:12.300Z,10.38
2023-04-28T15:56:39.334Z,11.40
2023-04-28T15:59:06.322Z,13.80
2023-04-28T16:01:33.285Z,12.27
2023-04-28T16:04:00.411Z,12.68
2023-04-28T16:06:27.228Z,13.65
2023-04-28T16:08:54.198Z,12.02
2023-04-28T16:11:21.345Z,11.77
2023-04-28T16:13:47.989Z,11.13
2023-04-28T16:16:14.603Z,10.80
2023-04-28T16:18:41.234Z,11.18
2023-04-28T16:21:07.832Z,12.35
2023-04-28T16:23:34.604Z,11.75
2023-04-28T16:26:01.496Z,11.45
2023-04-28T16:28:28.158Z,11.88
2023-04-28T16:30:54.768Z,10.30
2023-04-28T16:33:21.331Z,11.05
2023-04-28T16:35:57.214Z,11.73
2023-04-28T16:38:23.788Z,12.05
2023-04-28T16:40:51.164Z,11.23
2023-04-28T16:43:18.238Z,12.60
2023-04-28T16:45:44.942Z,11.88
2023-04-28T16:48:11.719Z,15.23
2023-04-28T16:50:40.781Z,12.85
2023-04-28T16:53:08.256Z,12.43
2023-04-28T16:55:36.622Z,14.57
2023-04-28T16:58:03.507Z,14.23
2023-04-28T17:00:30.982Z,17.30
2023-04-28T17:02:57.724Z,13.00
2023-04-28T17:05:24.414Z,11.18
2023-04-28T17:07:51.084Z,12.73
2023-04-28T17:10:17.806Z,13.38
2023-04-28T17:12:45.780Z,15.18
2023-04-28T17:15:18.324Z,16.83
2023-04-28T17:17:47.934Z,19.02
2023-04-28T17:20:19.816Z,15.88
2023-04-28T17:22:47.424Z,16.30
2023-04-28T17:25:14.072Z,17.07
2023-04-28T17:27:40.806Z,17.38
2023-04-28T17:30:10.654Z,15.77
2023-04-28T17:32:37.920Z,22.10
2023-04-28T17:35:05.078Z,19.98
2023-04-28T17:37:32.523Z,21.42
2023-04-28T17:39:59.371Z,29.33
2023-04-28T17:42:28.465Z,29.45
2023-04-28T17:44:55.001Z,20.98
2023-04-28T17:47:21.701Z,20.30
2023-04-28T17:49:48.275Z,17.38
2023-04-28T17:52:15.536Z,18.52
2023-04-28T17:54:42.505Z,14.95
2023-04-28T17:57:09.189Z,16.48
2023-04-28T17:59:36.124Z,14.20
2023-04-28T18:02:02.902Z,14.18
2023-04-28T18:04:29.638Z,12.25
2023-04-28T18:06:56.509Z,14.00
2023-04-28T18:09:23.100Z,12.60
2023-04-28T18:11:49.659Z,14.10
2023-04-28T18:14:18.268Z,14.18
2023-04-28T18:16:45.014Z,15.38
2023-04-28T18:19:12.062Z,12.45
2023-04-28T18:21:38.787Z,13.88
2023-04-28T18:24:05.371Z,12.00
2023-04-28T18:26:31.955Z,11.25
2023-04-28T18:28:58.518Z,11.68
2023-04-28T18:31:25.168Z,11.93
2023-04-28T18:33:52.216Z,13.13
2023-04-28T18:36:18.793Z,10.80
2023-04-28T18:38:45.375Z,11.95
2023-04-28T18:41:14.167Z,15.65
2023-04-28T18:43:41.805Z,10.15
2023-04-28T18:46:08.949Z,11.00
2023-04-28T18:48:35.813Z,9.60
2023-04-28T18:51:03.283Z,11.23
2023-04-28T18:53:30.500Z,9.95
2023-04-28T18:55:58.242Z,11.18
2023-04-28T18:58:25.521Z,10.88
2023-04-28T19:00:52.797Z,12.38
2023-04-28T19:03:20.011Z,13.27
2023-04-28T19:05:47.030Z,14.20
2023-04-28T19:08:13.782Z,11.18
2023-04-28T19:10:41.191Z,12.27
2023-04-28T19:13:08.070Z,10.50
2023-04-28T19:15:35.042Z,12.68
2023-04-28T19:18:02.218Z,14.15
2023-04-28T19:20:29.082Z,12.38
2023-04-28T19:22:56.706Z,13.45
2023-04-28T19:25:23.411Z,13.70
2023-04-28T19:27:50.041Z,14.00
2023-04-28T19:30:16.850Z,12.18
2023-04-28T19:32:43.627Z,13.85
2023-04-28T19:35:10.472Z,12.43
2023-04-28T19:37:37.155Z,13.73
2023-04-28T19:40:07.419Z,15.60
2023-04-28T19:42:35.146Z,12.32
2023-04-28T19:45:02.164Z,12.38
2023-04-28T19:47:30.488Z,12.27
2023-04-28T19:49:57.114Z,13.20
2023-04-28T19:52:23.741Z,13.27
2023-04-28T19:54:50.959Z,11.95
2023-04-28T19:57:18.741Z,12.70
2023-04-28T19:59:46.370Z,15.82
2023-04-28T20:02:13.116Z,14.77
2023-04-28T20:04:40.164Z,15.23
2023-04-28T20:07:07.189Z,16.73
2023-04-28T20:09:34.953Z,15.18
2023-04-28T20:12:04.385Z,14.20
2023-04-28T20:14:31.281Z,13.80
2023-04-28T20:16:58.416Z,15.27
2023-04-28T20:19:25.252Z,15.48
2023-04-28T20:21:52.422Z,16.75
2023-04-28T20:24:19.005Z,16.20
2023-04-28T20:26:45.978Z,15.88
2023-04-28T20:29:12.549Z,19.00
2023-04-28T20:31:39.680Z,15.45
2023-04-28T20:34:06.827Z,15.48
2023-04-28T20:36:33.547Z,15.90
2023-04-28T20:39:00.217Z,16.02
2023-04-28T20:41:26.805Z,17.85
2023-04-28T20:43:54.464Z,18.08
2023-04-28T20:46:21.455Z,15.13
2023-04-28T20:48:48.266Z,17.13
2023-04-28T20:51:14.891Z,19.33
2023-04-28T20:53:42.967Z,20.27
2023-04-28T20:56:09.542Z,18.48
2023-04-28T20:58:36.228Z,18.90
2023-04-28T21:01:02.886Z,22.00
2023-04-28T21:03:30.546Z,18.55
2023-04-28T21:05:57.298Z,21.83
2023-04-28T21:08:23.849Z,17.05
2023-04-28T21:10:50.465Z,18.58
2023-04-28T21:13:17.086Z,22.23
2023-04-28T21:15:43.715Z,19.98
2023-04-28T21:18:10.307Z,17.33
2023-04-28T21:20:37.413Z,20.55
2023-04-28T21:23:04.382Z,17.42
2023-04-28T21:25:31.039Z,18.88
2023-04-28T21:27:58.906Z,17.98
2023-04-28T21:30:27.556Z,23.58
2023-04-28T21:32:54.195Z,18.95
2023-04-28T21:35:20.936Z,17.65
2023-04-28T21:37:48.074Z,22.10
2023-04-28T21:40:14.710Z,16.98
2023-04-28T21:42:41.249Z,18.63
2023-04-28T21:45:09.568Z,19.58
2023-04-28T21:47:36.244Z,17.02
2023-04-28T21:50:02.923Z,17.98
2023-04-28T21:52:29.535Z,16.92
2023-04-28T21:54:56.578Z,15.48
2023-04-28T21:57:23.184Z,17.17
2023-04-28T21:59:50.319Z,19.63
2023-04-28T22:02:17.310Z,16.55
2023-04-28T22:04:43.882Z,16.60
2023-04-28T22:07:10.630Z,17.60
2023-04-28T22:09:37.273Z,18.38
2023-04-28T22:12:04.182Z,15.60
2023-04-28T22:17:00.217Z,19.27
2023-04-28T22:19:27.665Z,24.23
2023-04-28T22:21:54.268Z,26.70
2023-04-28T22:24:20.844Z,31.85
2023-04-28T22:26:47.488Z,27.10
2023-04-28T22:29:14.044Z,29.63
2023-04-28T22:31:40.744Z,31.15
2023-04-28T22:34:09.934Z,33.13
2023-04-28T22:36:37.380Z,35.38
2023-04-28T22:39:05.554Z,37.53
2023-04-28T22:41:32.153Z,38.25
2023-04-28T22:43:58.706Z,40.35
2023-04-28T22:46:25.777Z,38.75
2023-04-28T22:48:52.430Z,39.72
2023-04-28T22:51:19.058Z,43.35
2023-04-28T22:53:46.635Z,38.95
2023-04-28T22:56:13.264Z,42.50
2023-04-28T22:58:39.806Z,39.90
2023-04-28T23:01:06.634Z,48.95
2023-04-28T23:03:34.046Z,46.97
2023-04-28T23:06:00.856Z,54.95
2023-04-28T23:08:27.409Z,51.47
2023-04-28T23:10:56.073Z,53.42
2023-04-28T23:13:22.644Z,54.92
2023-04-28T23:15:49.283Z,53.10
2023-04-28T23:18:15.869Z,59.15
2023-04-28T23:20:42.437Z,56.75
2023-04-28T23:23:09.014Z,59.20
2023-04-28T23:25:36.415Z,58.28
2023-04-28T23:28:03.332Z,61.58
2023-04-28T23:30:29.894Z,63.03
2023-04-28T23:32:56.534Z,66.00
2023-04-28T23:35:23.617Z,67.85
2023-04-28T23:37:50.171Z,60.58
2023-04-28T23:40:16.779Z,59.05
2023-04-28T23:42:43.411Z,60.85
2023-04-28T23:45:10.780Z,62.38
2023-04-28T23:47:37.538Z,57.78
2023-04-28T23:50:05.005Z,60.80
2023-04-28T23:52:32.093Z,58.13
2023-04-28T23:54:59.269Z,57.03
2023-04-28T23:57:25.849Z,49.17
2023-04-28T23:59:53.768Z,59.42
